sensor_id;sensor_type;location;lat;lon;timestamp;pressure;altitude;pressure_sealevel;temperature;humidity
36598;BME280;22607;49.550;11.940;2023-10-19T00:01:59;95575.28;;;7.60;100.00
36598;BME280;22607;49.550;11.940;2023-10-19T00:04:26;95562.72;;;7.48;100.00
36598;BME280;22607;49.550;11.940;2023-10-19T00:06:53;95555.81;;;7.62;100.00
36598;BME280;22607;49.550;11.940;2023-10-19T00:09:20;95553.94;;;7.56;100.00
36598;BME280;22607;49.550;11.940;2023-10-19T00:11:47;95551.63;;;7.46;100.00
36598;BME280;22607;49.550;11.940;2023-10-19T00:14:14;95558.28;;;7.49;100.00
36598;BME280;22607;49.550;11.940;2023-10-19T00:16:50;95531.91;;;7.44;100.00
36598;BME280;22607;49.550;11.940;2023-10-19T00:19:23;95531.75;;;7.30;100.00
36598;BME280;22607;49.550;11.940;2023-10-19T00:21:54;95530.53;;;7.26;100.00
36598;BME280;22607;49.550;11.940;2023-10-19T00:24:21;95516.63;;;7.41;100.00
36598;BME280;22607;49.550;11.940;2023-10-19T00:26:51;95518.72;;;7.52;100.00
36598;BME280;22607;49.550;11.940;2023-10-19T00:29:21;95519.09;;;7.49;100.00
36598;BME280;22607;49.550;11.940;2023-10-19T00:31:57;95508.25;;;7.30;100.00
36598;BME280;22607;49.550;11.940;2023-10-19T00:34:25;95500.06;;;7.33;100.00
36598;BME280;22607;49.550;11.940;2023-10-19T00:36:52;95506.78;;;7.43;100.00
36598;BME280;22607;49.550;11.940;2023-10-19T00:39:18;95495.72;;;7.41;100.00
36598;BME280;22607;49.550;11.940;2023-10-19T00:41:48;95490.91;;;7.44;100.00
36598;BME280;22607;49.550;11.940;2023-10-19T00:44:16;95498.00;;;7.51;100.00
36598;BME280;22607;49.550;11.940;2023-10-19T00:46:51;95480.59;;;7.58;100.00
36598;BME280;22607;49.550;11.940;2023-10-19T00:49:30;95468.22;;;7.45;100.00
36598;BME280;22607;49.550;11.940;2023-10-19T00:51:58;95471.69;;;7.52;100.00
36598;BME280;22607;49.550;11.940;2023-10-19T00:54:34;95485.28;;;7.41;100.00
36598;BME280;22607;49.550;11.940;2023-10-19T00:57:08;95474.22;;;7.23;100.00
36598;BME280;22607;49.550;11.940;2023-10-19T00:59:39;95470.19;;;7.21;100.00
36598;BME280;22607;49.550;11.940;2023-10-19T01:02:10;95475.53;;;7.34;100.00
36598;BME280;22607;49.550;11.940;2023-10-19T01:04:53;95456.00;;;7.08;100.00
36598;BME280;22607;49.550;11.940;2023-10-19T01:07:23;95463.72;;;7.17;100.00
36598;BME280;22607;49.550;11.940;2023-10-19T01:09:57;95457.13;;;7.21;100.00
36598;BME280;22607;49.550;11.940;2023-10-19T01:12:26;95459.81;;;7.28;100.00
36598;BME280;22607;49.550;11.940;2023-10-19T01:17:49;95451.47;;;7.17;100.00
36598;BME280;22607;49.550;11.940;2023-10-19T01:20:21;95442.63;;;7.18;100.00
36598;BME280;22607;49.550;11.940;2023-10-19T01:23:08;95438.34;;;7.11;100.00
36598;BME280;22607;49.550;11.940;2023-10-19T01:25:43;95446.44;;;7.38;100.00
36598;BME280;22607;49.550;11.940;2023-10-19T01:28:17;95442.16;;;7.30;100.00
36598;BME280;22607;49.550;11.940;2023-10-19T01:30:45;95429.88;;;7.30;100.00
36598;BME280;22607;49.550;11.940;2023-10-19T01:33:12;95444.19;;;7.34;100.00
36598;BME280;22607;49.550;11.940;2023-10-19T01:35:45;95431.31;;;7.33;100.00
36598;BME280;22607;49.550;11.940;2023-10-19T01:38:30;95447.81;;;7.33;100.00
36598;BME280;22607;49.550;11.940;2023-10-19T01:41:01;95448.88;;;7.39;100.00
36598;BME280;22607;49.550;11.940;2023-10-19T01:43:32;95432.88;;;7.49;100.00
36598;BME280;22607;49.550;11.940;2023-10-19T01:46:00;95436.88;;;7.45;100.00
36598;BME280;22607;49.550;11.940;2023-10-19T01:48:41;95434.28;;;7.45;100.00
36598;BME280;22607;49.550;11.940;2023-10-19T01:51:09;95429.06;;;7.52;100.00
36598;BME280;22607;49.550;11.940;2023-10-19T01:53:41;95421.88;;;7.54;100.00
36598;BME280;22607;49.550;11.940;2023-10-19T01:56:13;95423.53;;;7.61;100.00
36598;BME280;22607;49.550;11.940;2023-10-19T01:58:42;95430.63;;;7.68;100.00
36598;BME280;22607;49.550;11.940;2023-10-19T02:01:09;95419.09;;;7.55;100.00
36598;BME280;22607;49.550;11.940;2023-10-19T02:03:40;95412.34;;;7.68;100.00
36598;BME280;22607;49.550;11.940;2023-10-19T02:06:13;95414.34;;;7.66;100.00
36598;BME280;22607;49.550;11.940;2023-10-19T02:08:46;95403.53;;;7.69;100.00
36598;BME280;22607;49.550;11.940;2023-10-19T02:11:23;95408.59;;;7.77;100.00
36598;BME280;22607;49.550;11.940;2023-10-19T02:13:55;95399.91;;;7.70;100.00
36598;BME280;22607;49.550;11.940;2023-10-19T02:16:22;95406.25;;;7.60;100.00
36598;BME280;22607;49.550;11.940;2023-10-19T02:18:50;95398.28;;;7.69;100.00
36598;BME280;22607;49.550;11.940;2023-10-19T02:21:17;95393.44;;;7.66;100.00
36598;BME280;22607;49.550;11.940;2023-10-19T02:23:53;95381.97;;;7.67;100.00
36598;BME280;22607;49.550;11.940;2023-10-19T02:26:20;95376.34;;;7.63;100.00
36598;BME280;22607;49.550;11.940;2023-10-19T02:28:52;95378.63;;;7.73;100.00
36598;BME280;22607;49.550;11.940;2023-10-19T02:31:19;95371.75;;;7.72;100.00
36598;BME280;22607;49.550;11.940;2023-10-19T02:33:53;95359.28;;;7.67;100.00
36598;BME280;22607;49.550;11.940;2023-10-19T02:36:29;95375.63;;;7.76;100.00
36598;BME280;22607;49.550;11.940;2023-10-19T02:39:01;95369.78;;;7.74;100.00
36598;BME280;22607;49.550;11.940;2023-10-19T02:44:03;95366.63;;;7.85;100.00
36598;BME280;22607;49.550;11.940;2023-10-19T02:46:31;95369.25;;;7.85;100.00
36598;BME280;22607;49.550;11.940;2023-10-19T02:49:03;95367.03;;;7.82;100.00
36598;BME280;22607;49.550;11.940;2023-10-19T02:51:31;95362.16;;;7.79;100.00
36598;BME280;22607;49.550;11.940;2023-10-19T02:53:57;95362.16;;;7.79;100.00
36598;BME280;22607;49.550;11.940;2023-10-19T02:56:28;95353.91;;;7.75;100.00
36598;BME280;22607;49.550;11.940;2023-10-19T02:58:57;95358.56;;;7.80;100.00
36598;BME280;22607;49.550;11.940;2023-10-19T03:01:28;95351.50;;;7.74;100.00
36598;BME280;22607;49.550;11.940;2023-10-19T03:04:00;95364.00;;;7.85;100.00
36598;BME280;22607;49.550;11.940;2023-10-19T03:06:30;95358.22;;;7.90;100.00
36598;BME280;22607;49.550;11.940;2023-10-19T03:09:00;95354.09;;;7.74;100.00
36598;BME280;22607;49.550;11.940;2023-10-19T03:11:48;95358.13;;;7.77;100.00
36598;BME280;22607;49.550;11.940;2023-10-19T03:14:19;95341.16;;;7.66;100.00
36598;BME280;22607;49.550;11.940;2023-10-19T03:16:46;95351.75;;;7.86;100.00
36598;BME280;22607;49.550;11.940;2023-10-19T03:19:14;95350.19;;;7.92;100.00
36598;BME280;22607;49.550;11.940;2023-10-19T03:21:40;95346.56;;;7.93;100.00
36598;BME280;22607;49.550;11.940;2023-10-19T03:24:10;95349.91;;;7.80;100.00
36598;BME280;22607;49.550;11.940;2023-10-19T03:26:50;95352.22;;;7.96;100.00
36598;BME280;22607;49.550;11.940;2023-10-19T03:29:16;95349.78;;;7.95;100.00
36598;BME280;22607;49.550;11.940;2023-10-19T03:31:48;95330.00;;;7.79;100.00
36598;BME280;22607;49.550;11.940;2023-10-19T03:34:15;95311.41;;;7.67;100.00
36598;BME280;22607;49.550;11.940;2023-10-19T03:36:45;95305.19;;;7.68;100.00
36598;BME280;22607;49.550;11.940;2023-10-19T03:39:12;95305.59;;;7.65;100.00
36598;BME280;22607;49.550;11.940;2023-10-19T03:41:42;95307.44;;;7.71;100.00
36598;BME280;22607;49.550;11.940;2023-10-19T03:44:11;95307.38;;;7.64;100.00
36598;BME280;22607;49.550;11.940;2023-10-19T03:46:43;95312.28;;;7.74;100.00
36598;BME280;22607;49.550;11.940;2023-10-19T03:49:22;95314.84;;;7.67;100.00
36598;BME280;22607;49.550;11.940;2023-10-19T03:51:49;95304.41;;;7.67;100.00
36598;BME280;22607;49.550;11.940;2023-10-19T03:54:26;95305.97;;;7.61;100.00
36598;BME280;22607;49.550;11.940;2023-10-19T03:56:55;95303.09;;;7.85;100.00
36598;BME280;22607;49.550;11.940;2023-10-19T03:59:23;95309.75;;;7.87;100.00
36598;BME280;22607;49.550;11.940;2023-10-19T04:01:56;95308.66;;;7.75;100.00
36598;BME280;22607;49.550;11.940;2023-10-19T04:04:26;95302.69;;;7.88;100.00
36598;BME280;22607;49.550;11.940;2023-10-19T04:06:56;95294.28;;;7.93;100.00
36598;BME280;22607;49.550;11.940;2023-10-19T04:09:25;95284.97;;;7.77;100.00
36598;BME280;22607;49.550;11.940;2023-10-19T04:11:55;95289.41;;;7.83;100.00
36598;BME280;22607;49.550;11.940;2023-10-19T04:14:22;95291.94;;;7.69;100.00
36598;BME280;22607;49.550;11.940;2023-10-19T04:16:49;95292.22;;;7.81;100.00
36598;BME280;22607;49.550;11.940;2023-10-19T04:19:16;95288.63;;;7.82;100.00
36598;BME280;22607;49.550;11.940;2023-10-19T04:21:50;95286.38;;;7.79;100.00
36598;BME280;22607;49.550;11.940;2023-10-19T04:24:17;95298.63;;;7.79;100.00
36598;BME280;22607;49.550;11.940;2023-10-19T04:26:45;95289.81;;;7.86;100.00
36598;BME280;22607;49.550;11.940;2023-10-19T04:29:12;95287.34;;;7.71;100.00
36598;BME280;22607;49.550;11.940;2023-10-19T04:31:43;95293.25;;;7.87;100.00
36598;BME280;22607;49.550;11.940;2023-10-19T04:34:22;95287.75;;;7.75;100.00
36598;BME280;22607;49.550;11.940;2023-10-19T04:36:50;95285.00;;;7.83;100.00
36598;BME280;22607;49.550;11.940;2023-10-19T04:39:17;95278.41;;;7.94;100.00
36598;BME280;22607;49.550;11.940;2023-10-19T04:41:46;95269.75;;;7.94;100.00
36598;BME280;22607;49.550;11.940;2023-10-19T04:44:16;95256.47;;;7.88;100.00
36598;BME280;22607;49.550;11.940;2023-10-19T04:46:42;95257.06;;;7.91;100.00
36598;BME280;22607;49.550;11.940;2023-10-19T04:49:09;95255.63;;;7.81;100.00
36598;BME280;22607;49.550;11.940;2023-10-19T04:51:36;95254.19;;;7.79;100.00
36598;BME280;22607;49.550;11.940;2023-10-19T04:54:05;95276.75;;;7.86;100.00
36598;BME280;22607;49.550;11.940;2023-10-19T04:56:35;95268.13;;;7.86;100.00
36598;BME280;22607;49.550;11.940;2023-10-19T04:59:04;95277.31;;;7.75;100.00
36598;BME280;22607;49.550;11.940;2023-10-19T05:01:32;95276.22;;;7.98;100.00
36598;BME280;22607;49.550;11.940;2023-10-19T05:04:01;95262.75;;;8.01;100.00
36598;BME280;22607;49.550;11.940;2023-10-19T05:06:28;95268.59;;;8.03;100.00
36598;BME280;22607;49.550;11.940;2023-10-19T05:09:01;95264.88;;;7.84;100.00
36598;BME280;22607;49.550;11.940;2023-10-19T05:11:29;95261.94;;;8.00;100.00
36598;BME280;22607;49.550;11.940;2023-10-19T05:13:56;95266.31;;;7.93;100.00
36598;BME280;22607;49.550;11.940;2023-10-19T05:16:22;95272.78;;;7.97;100.00
36598;BME280;22607;49.550;11.940;2023-10-19T05:18:49;95272.63;;;8.06;100.00
36598;BME280;22607;49.550;11.940;2023-10-19T05:21:16;95276.66;;;8.08;100.00
36598;BME280;22607;49.550;11.940;2023-10-19T05:23:45;95273.44;;;8.06;100.00
36598;BME280;22607;49.550;11.940;2023-10-19T05:26:12;95275.44;;;8.04;100.00
36598;BME280;22607;49.550;11.940;2023-10-19T05:28:41;95281.25;;;7.99;100.00
36598;BME280;22607;49.550;11.940;2023-10-19T05:31:09;95270.56;;;7.94;100.00
36598;BME280;22607;49.550;11.940;2023-10-19T05:33:38;95260.34;;;7.99;100.00
36598;BME280;22607;49.550;11.940;2023-10-19T05:36:05;95267.81;;;8.09;100.00
36598;BME280;22607;49.550;11.940;2023-10-19T05:38:31;95254.09;;;8.00;100.00
36598;BME280;22607;49.550;11.940;2023-10-19T05:40:58;95261.78;;;8.09;100.00
36598;BME280;22607;49.550;11.940;2023-10-19T05:43:28;95254.94;;;8.08;100.00
36598;BME280;22607;49.550;11.940;2023-10-19T05:45:54;95275.06;;;8.07;100.00
36598;BME280;22607;49.550;11.940;2023-10-19T05:48:21;95284.63;;;7.93;100.00
36598;BME280;22607;49.550;11.940;2023-10-19T05:50:49;95273.81;;;8.03;100.00
36598;BME280;22607;49.550;11.940;2023-10-19T05:53:16;95247.19;;;7.79;100.00
36598;BME280;22607;49.550;11.940;2023-10-19T05:55:49;95258.84;;;7.83;100.00
36598;BME280;22607;49.550;11.940;2023-10-19T05:58:16;95264.75;;;7.99;100.00
36598;BME280;22607;49.550;11.940;2023-10-19T06:00:42;95264.38;;;8.02;100.00
36598;BME280;22607;49.550;11.940;2023-10-19T06:03:09;95260.94;;;8.01;100.00
36598;BME280;22607;49.550;11.940;2023-10-19T06:05:36;95245.84;;;7.97;100.00
36598;BME280;22607;49.550;11.940;2023-10-19T06:08:04;95241.25;;;8.06;100.00
36598;BME280;22607;49.550;11.940;2023-10-19T06:10:31;95259.75;;;8.04;100.00
36598;BME280;22607;49.550;11.940;2023-10-19T06:12:58;95249.91;;;8.06;100.00
36598;BME280;22607;49.550;11.940;2023-10-19T06:15:26;95255.78;;;8.15;100.00
36598;BME280;22607;49.550;11.940;2023-10-19T06:17:55;95243.47;;;8.02;100.00
36598;BME280;22607;49.550;11.940;2023-10-19T06:20:22;95231.56;;;7.93;100.00
36598;BME280;22607;49.550;11.940;2023-10-19T06:22:54;95253.13;;;8.08;100.00
36598;BME280;22607;49.550;11.940;2023-10-19T06:25:24;95249.72;;;8.14;100.00
36598;BME280;22607;49.550;11.940;2023-10-19T06:27:52;95244.09;;;8.18;100.00
36598;BME280;22607;49.550;11.940;2023-10-19T06:30:20;95247.53;;;8.18;100.00
36598;BME280;22607;49.550;11.940;2023-10-19T06:32:54;95256.81;;;8.21;100.00
36598;BME280;22607;49.550;11.940;2023-10-19T06:35:22;95248.94;;;8.21;100.00
36598;BME280;22607;49.550;11.940;2023-10-19T06:37:49;95248.16;;;8.27;100.00
36598;BME280;22607;49.550;11.940;2023-10-19T06:40:16;95231.66;;;8.33;100.00
36598;BME280;22607;49.550;11.940;2023-10-19T06:42:44;95234.09;;;8.35;100.00
36598;BME280;22607;49.550;11.940;2023-10-19T06:45:14;95236.50;;;8.36;100.00
36598;BME280;22607;49.550;11.940;2023-10-19T06:47:48;95229.66;;;8.28;100.00
36598;BME280;22607;49.550;11.940;2023-10-19T06:50:20;95229.88;;;8.34;100.00
36598;BME280;22607;49.550;11.940;2023-10-19T06:52:47;95232.69;;;8.32;100.00
36598;BME280;22607;49.550;11.940;2023-10-19T06:55:16;95223.25;;;8.45;100.00
36598;BME280;22607;49.550;11.940;2023-10-19T06:57:47;95227.28;;;8.40;100.00
36598;BME280;22607;49.550;11.940;2023-10-19T07:00:16;95235.19;;;8.54;100.00
36598;BME280;22607;49.550;11.940;2023-10-19T07:02:48;95231.75;;;8.53;100.00
36598;BME280;22607;49.550;11.940;2023-10-19T07:05:18;95228.50;;;8.51;100.00
36598;BME280;22607;49.550;11.940;2023-10-19T07:07:48;95219.69;;;8.59;100.00
36598;BME280;22607;49.550;11.940;2023-10-19T07:10:18;95216.81;;;8.47;100.00
36598;BME280;22607;49.550;11.940;2023-10-19T07:12:47;95189.44;;;8.36;100.00
36598;BME280;22607;49.550;11.940;2023-10-19T07:15:14;95220.25;;;8.48;100.00
36598;BME280;22607;49.550;11.940;2023-10-19T07:17:41;95224.13;;;8.79;100.00
36598;BME280;22607;49.550;11.940;2023-10-19T07:20:10;95225.91;;;9.46;100.00
36598;BME280;22607;49.550;11.940;2023-10-19T07:23:04;95220.88;;;9.44;100.00
36598;BME280;22607;49.550;11.940;2023-10-19T07:25:45;95216.88;;;9.15;100.00
36598;BME280;22607;49.550;11.940;2023-10-19T07:28:12;95222.72;;;9.37;100.00
36598;BME280;22607;49.550;11.940;2023-10-19T07:30:42;95215.97;;;9.68;100.00
36598;BME280;22607;49.550;11.940;2023-10-19T07:33:10;95213.28;;;9.89;100.00
36598;BME280;22607;49.550;11.940;2023-10-19T07:35:37;95211.91;;;9.79;100.00
36598;BME280;22607;49.550;11.940;2023-10-19T07:38:05;95212.34;;;9.69;100.00
36598;BME280;22607;49.550;11.940;2023-10-19T07:40:34;95219.63;;;9.54;100.00
36598;BME280;22607;49.550;11.940;2023-10-19T07:43:01;95207.59;;;9.32;100.00
36598;BME280;22607;49.550;11.940;2023-10-19T07:45:30;95216.66;;;9.30;100.00
36598;BME280;22607;49.550;11.940;2023-10-19T07:47:58;95210.41;;;9.31;100.00
36598;BME280;22607;49.550;11.940;2023-10-19T07:50:37;95222.09;;;9.35;100.00
36598;BME280;22607;49.550;11.940;2023-10-19T07:53:08;95213.00;;;9.38;100.00
36598;BME280;22607;49.550;11.940;2023-10-19T07:55:35;95221.47;;;9.47;100.00
36598;BME280;22607;49.550;11.940;2023-10-19T07:58:03;95214.00;;;9.57;100.00
36598;BME280;22607;49.550;11.940;2023-10-19T08:00:32;95207.91;;;9.63;100.00
36598;BME280;22607;49.550;11.940;2023-10-19T08:03:05;95218.03;;;9.59;100.00
36598;BME280;22607;49.550;11.940;2023-10-19T08:05:46;95205.94;;;9.58;100.00
36598;BME280;22607;49.550;11.940;2023-10-19T08:08:13;95196.19;;;9.72;100.00
36598;BME280;22607;49.550;11.940;2023-10-19T08:10:42;95196.31;;;9.98;100.00
36598;BME280;22607;49.550;11.940;2023-10-19T08:13:09;95194.84;;;10.09;100.00
36598;BME280;22607;49.550;11.940;2023-10-19T08:15:35;95202.06;;;10.20;100.00
36598;BME280;22607;49.550;11.940;2023-10-19T08:18:03;95197.13;;;10.44;100.00
36598;BME280;22607;49.550;11.940;2023-10-19T08:20:32;95190.69;;;10.33;100.00
36598;BME280;22607;49.550;11.940;2023-10-19T08:23:04;95196.66;;;10.47;100.00
36598;BME280;22607;49.550;11.940;2023-10-19T08:25:32;95191.00;;;10.50;100.00
36598;BME280;22607;49.550;11.940;2023-10-19T08:28:19;95189.41;;;10.49;100.00
36598;BME280;22607;49.550;11.940;2023-10-19T08:30:46;95187.00;;;10.73;100.00
36598;BME280;22607;49.550;11.940;2023-10-19T08:33:24;95186.59;;;10.76;100.00
36598;BME280;22607;49.550;11.940;2023-10-19T08:35:53;95190.47;;;10.74;100.00
36598;BME280;22607;49.550;11.940;2023-10-19T08:38:21;95183.16;;;10.76;100.00
36598;BME280;22607;49.550;11.940;2023-10-19T08:40:48;95182.13;;;10.77;100.00
36598;BME280;22607;49.550;11.940;2023-10-19T08:43:17;95169.78;;;10.84;100.00
36598;BME280;22607;49.550;11.940;2023-10-19T08:45:47;95170.84;;;10.76;100.00
36598;BME280;22607;49.550;11.940;2023-10-19T08:48:16;95166.94;;;10.86;100.00
36598;BME280;22607;49.550;11.940;2023-10-19T08:50:42;95163.69;;;11.09;100.00
36598;BME280;22607;49.550;11.940;2023-10-19T08:53:10;95167.81;;;11.61;100.00
36598;BME280;22607;49.550;11.940;2023-10-19T08:55:40;95155.59;;;11.86;100.00
36598;BME280;22607;49.550;11.940;2023-10-19T08:58:16;95157.06;;;12.31;100.00
36598;BME280;22607;49.550;11.940;2023-10-19T09:00:49;95149.78;;;12.45;100.00
36598;BME280;22607;49.550;11.940;2023-10-19T09:03:27;95148.91;;;12.87;100.00
36598;BME280;22607;49.550;11.940;2023-10-19T09:05:55;95159.66;;;12.85;99.96
36598;BME280;22607;49.550;11.940;2023-10-19T09:08:23;95163.56;;;12.83;97.93
36598;BME280;22607;49.550;11.940;2023-10-19T09:10:51;95160.91;;;12.71;95.03
36598;BME280;22607;49.550;11.940;2023-10-19T09:13:22;95157.56;;;12.40;100.00
36598;BME280;22607;49.550;11.940;2023-10-19T09:15:51;95150.94;;;12.49;99.36
36598;BME280;22607;49.550;11.940;2023-10-19T09:18:24;95159.31;;;12.58;100.00
36598;BME280;22607;49.550;11.940;2023-10-19T09:20:56;95162.81;;;12.40;100.00
36598;BME280;22607;49.550;11.940;2023-10-19T09:23:31;95145.78;;;12.54;95.17
36598;BME280;22607;49.550;11.940;2023-10-19T09:26:00;95157.19;;;12.36;100.00
36598;BME280;22607;49.550;11.940;2023-10-19T09:28:34;95163.25;;;12.37;100.00
36598;BME280;22607;49.550;11.940;2023-10-19T09:31:02;95158.63;;;12.74;97.85
36598;BME280;22607;49.550;11.940;2023-10-19T09:33:32;95164.69;;;12.63;100.00
36598;BME280;22607;49.550;11.940;2023-10-19T09:36:01;95168.44;;;12.55;100.00
36598;BME280;22607;49.550;11.940;2023-10-19T09:38:30;95167.53;;;12.62;97.70
36598;BME280;22607;49.550;11.940;2023-10-19T09:41:00;95152.56;;;12.74;96.18
36598;BME280;22607;49.550;11.940;2023-10-19T09:43:33;95163.09;;;12.74;97.04
36598;BME280;22607;49.550;11.940;2023-10-19T09:46:09;95160.34;;;12.57;98.24
36598;BME280;22607;49.550;11.940;2023-10-19T09:48:47;95159.97;;;12.53;97.88
36598;BME280;22607;49.550;11.940;2023-10-19T09:51:16;95160.63;;;12.37;100.00
36598;BME280;22607;49.550;11.940;2023-10-19T09:54:22;95163.47;;;12.35;100.00
36598;BME280;22607;49.550;11.940;2023-10-19T09:56:50;95145.50;;;12.32;100.00
36598;BME280;22607;49.550;11.940;2023-10-19T09:59:31;95174.28;;;12.57;100.00
36598;BME280;22607;49.550;11.940;2023-10-19T10:04:32;95178.41;;;12.65;100.00
36598;BME280;22607;49.550;11.940;2023-10-19T10:07:00;95166.78;;;12.73;100.00
36598;BME280;22607;49.550;11.940;2023-10-19T10:09:26;95160.28;;;12.99;95.36
36598;BME280;22607;49.550;11.940;2023-10-19T10:11:55;95159.78;;;13.03;95.25
36598;BME280;22607;49.550;11.940;2023-10-19T10:14:24;95156.91;;;13.28;92.43
36598;BME280;22607;49.550;11.940;2023-10-19T10:17:04;95159.31;;;13.42;90.96
36598;BME280;22607;49.550;11.940;2023-10-19T10:19:32;95166.09;;;13.61;90.36
36598;BME280;22607;49.550;11.940;2023-10-19T10:22:10;95157.34;;;14.31;86.08
36598;BME280;22607;49.550;11.940;2023-10-19T10:24:47;95157.53;;;13.83;88.69
36598;BME280;22607;49.550;11.940;2023-10-19T10:27:22;95166.22;;;13.55;93.12
36598;BME280;22607;49.550;11.940;2023-10-19T10:30:00;95162.75;;;13.66;92.65
36598;BME280;22607;49.550;11.940;2023-10-19T10:32:51;95157.41;;;13.49;93.96
36598;BME280;22607;49.550;11.940;2023-10-19T10:38:06;95152.34;;;13.59;100.00
36598;BME280;22607;49.550;11.940;2023-10-19T10:40:48;95145.47;;;13.34;97.43
36598;BME280;22607;49.550;11.940;2023-10-19T10:43:16;95137.09;;;13.61;95.47
36598;BME280;22607;49.550;11.940;2023-10-19T10:45:43;95126.38;;;13.80;91.17
36598;BME280;22607;49.550;11.940;2023-10-19T10:48:41;95118.91;;;13.77;94.04
36598;BME280;22607;49.550;11.940;2023-10-19T10:51:33;95110.31;;;13.70;93.20
36598;BME280;22607;49.550;11.940;2023-10-19T10:53:59;95108.47;;;13.82;93.58
36598;BME280;22607;49.550;11.940;2023-10-19T10:56:26;95108.78;;;13.86;91.16
36598;BME280;22607;49.550;11.940;2023-10-19T10:58:53;95094.22;;;13.83;92.86
36598;BME280;22607;49.550;11.940;2023-10-19T11:01:29;95092.97;;;14.03;91.95
36598;BME280;22607;49.550;11.940;2023-10-19T11:04:12;95075.63;;;13.90;91.22
36598;BME280;22607;49.550;11.940;2023-10-19T11:06:51;95086.78;;;14.09;92.23
36598;BME280;22607;49.550;11.940;2023-10-19T11:09:18;95077.81;;;14.10;93.58
36598;BME280;22607;49.550;11.940;2023-10-19T11:11:47;95077.56;;;13.95;95.68
36598;BME280;22607;49.550;11.940;2023-10-19T11:14:15;95085.81;;;14.15;94.82
36598;BME280;22607;49.550;11.940;2023-10-19T11:16:42;95078.09;;;13.97;93.28
36598;BME280;22607;49.550;11.940;2023-10-19T11:19:10;95081.66;;;14.02;91.88
36598;BME280;22607;49.550;11.940;2023-10-19T11:21:36;95075.38;;;13.91;90.62
36598;BME280;22607;49.550;11.940;2023-10-19T11:24:03;95076.03;;;13.70;93.23
36598;BME280;22607;49.550;11.940;2023-10-19T11:26:30;95066.63;;;13.74;93.37
36598;BME280;22607;49.550;11.940;2023-10-19T11:29:00;95070.78;;;13.58;96.63
36598;BME280;22607;49.550;11.940;2023-10-19T11:31:27;95060.47;;;13.68;97.82
36598;BME280;22607;49.550;11.940;2023-10-19T11:33:57;95062.69;;;13.76;95.91
36598;BME280;22607;49.550;11.940;2023-10-19T11:36:24;95062.69;;;13.76;96.42
36598;BME280;22607;49.550;11.940;2023-10-19T11:38:52;95058.50;;;13.93;97.70
36598;BME280;22607;49.550;11.940;2023-10-19T11:41:20;95053.06;;;13.82;94.77
36598;BME280;22607;49.550;11.940;2023-10-19T11:43:48;95062.44;;;14.07;92.39
36598;BME280;22607;49.550;11.940;2023-10-19T11:46:22;95054.28;;;13.91;93.23
36598;BME280;22607;49.550;11.940;2023-10-19T11:48:49;95047.41;;;13.90;95.41
36598;BME280;22607;49.550;11.940;2023-10-19T11:51:16;95057.81;;;13.97;97.76
36598;BME280;22607;49.550;11.940;2023-10-19T11:53:44;95055.25;;;14.02;98.91
36598;BME280;22607;49.550;11.940;2023-10-19T11:56:12;95056.22;;;14.13;97.26
36598;BME280;22607;49.550;11.940;2023-10-19T11:58:40;95054.31;;;14.26;94.29
36598;BME280;22607;49.550;11.940;2023-10-19T12:01:09;95047.56;;;14.18;95.93
36598;BME280;22607;49.550;11.940;2023-10-19T12:03:40;95046.31;;;14.21;96.54
36598;BME280;22607;49.550;11.940;2023-10-19T12:06:09;95042.94;;;14.42;93.46
36598;BME280;22607;49.550;11.940;2023-10-19T12:08:37;95041.75;;;14.50;91.33
36598;BME280;22607;49.550;11.940;2023-10-19T12:11:04;95037.91;;;14.41;90.94
36598;BME280;22607;49.550;11.940;2023-10-19T12:13:42;95030.94;;;14.52;91.43
36598;BME280;22607;49.550;11.940;2023-10-19T12:16:13;95028.06;;;14.53;92.02
36598;BME280;22607;49.550;11.940;2023-10-19T12:18:43;95029.81;;;14.48;94.08
36598;BME280;22607;49.550;11.940;2023-10-19T12:21:11;95027.50;;;14.68;91.92
36598;BME280;22607;49.550;11.940;2023-10-19T12:23:42;95028.78;;;14.83;91.60
36598;BME280;22607;49.550;11.940;2023-10-19T12:26:10;95023.66;;;14.76;91.51
36598;BME280;22607;49.550;11.940;2023-10-19T12:28:41;95011.53;;;14.98;89.57
36598;BME280;22607;49.550;11.940;2023-10-19T12:31:10;95005.72;;;15.01;90.02
36598;BME280;22607;49.550;11.940;2023-10-19T12:33:39;95005.25;;;15.04;88.98
36598;BME280;22607;49.550;11.940;2023-10-19T12:36:08;95003.16;;;15.06;88.17
36598;BME280;22607;49.550;11.940;2023-10-19T12:38:53;95006.16;;;15.15;88.89
36598;BME280;22607;49.550;11.940;2023-10-19T12:41:21;95005.41;;;15.19;88.60
36598;BME280;22607;49.550;11.940;2023-10-19T12:43:48;94999.59;;;15.17;89.44
36598;BME280;22607;49.550;11.940;2023-10-19T12:46:20;95008.38;;;15.23;88.36
36598;BME280;22607;49.550;11.940;2023-10-19T12:48:57;94999.47;;;15.07;88.08
36598;BME280;22607;49.550;11.940;2023-10-19T12:51:26;94994.72;;;15.09;88.63
36598;BME280;22607;49.550;11.940;2023-10-19T12:53:53;94985.75;;;15.10;88.30
36598;BME280;22607;49.550;11.940;2023-10-19T12:56:23;94992.31;;;14.85;91.44
36598;BME280;22607;49.550;11.940;2023-10-19T12:58:51;94987.59;;;14.87;90.05
36598;BME280;22607;49.550;11.940;2023-10-19T13:01:17;94993.06;;;14.80;91.46
36598;BME280;22607;49.550;11.940;2023-10-19T13:03:46;94999.16;;;14.64;93.55
36598;BME280;22607;49.550;11.940;2023-10-19T13:06:14;94994.91;;;14.80;92.52
36598;BME280;22607;49.550;11.940;2023-10-19T13:08:41;94992.34;;;14.68;93.22
36598;BME280;22607;49.550;11.940;2023-10-19T13:11:09;94985.28;;;14.74;93.58
36598;BME280;22607;49.550;11.940;2023-10-19T13:13:43;94971.50;;;14.72;93.01
36598;BME280;22607;49.550;11.940;2023-10-19T13:16:10;94996.50;;;14.64;95.54